sensor_id;sensor_type;location;lat;lon;timestamp;P1;durP1;ratioP1;P2;durP2;ratioP2
56429;SDS011;42332;52.136;20.666;2022-12-07T00:00:52;49.15;;;20.27;;
56429;SDS011;42332;52.136;20.666;2022-12-07T00:03:17;42.70;;;17.92;;
56429;SDS011;42332;52.136;20.666;2022-12-07T00:05:43;55.17;;;18.50;;
56429;SDS011;42332;52.136;20.666;2022-12-07T00:08:08;45.55;;;17.15;;
56429;SDS011;42332;52.136;20.666;2022-12-07T00:10:34;30.80;;;14.55;;
56429;SDS011;42332;52.136;20.666;2022-12-07T00:12:59;37.75;;;15.75;;
56429;SDS011;42332;52.136;20.666;2022-12-07T00:15:25;36.15;;;12.68;;
56429;SDS011;42332;52.136;20.666;2022-12-07T00:17:50;40.38;;;15.00;;
56429;SDS011;42332;52.136;20.666;2022-12-07T00:20:15;43.03;;;17.25;;
56429;SDS011;42332;52.136;20.666;2022-12-07T00:22:41;44.22;;;16.08;;
56429;SDS011;42332;52.136;20.666;2022-12-07T00:25:06;31.15;;;13.77;;
56429;SDS011;42332;52.136;20.666;2022-12-07T00:27:32;37.55;;;12.77;;
56429;SDS011;42332;52.136;20.666;2022-12-07T00:29:57;27.63;;;10.68;;
56429;SDS011;42332;52.136;20.666;2022-12-07T00:32:23;16.63;;;7.18;;
56429;SDS011;42332;52.136;20.666;2022-12-07T00:34:48;16.55;;;8.43;;
56429;SDS011;42332;52.136;20.666;2022-12-07T00:37:13;21.23;;;7.35;;
56429;SDS011;42332;52.136;20.666;2022-12-07T00:39:39;21.15;;;7.13;;
56429;SDS011;42332;52.136;20.666;2022-12-07T00:42:04;23.45;;;8.98;;
56429;SDS011;42332;52.136;20.666;2022-12-07T00:44:29;19.05;;;8.98;;
56429;SDS011;42332;52.136;20.666;2022-12-07T00:46:55;20.02;;;9.38;;
56429;SDS011;42332;52.136;20.666;2022-12-07T00:49:20;21.67;;;7.00;;
56429;SDS011;42332;52.136;20.666;2022-12-07T00:51:47;18.48;;;8.90;;
56429;SDS011;42332;52.136;20.666;2022-12-07T00:54:13;21.38;;;7.38;;
56429;SDS011;42332;52.136;20.666;2022-12-07T00:56:39;18.00;;;9.73;;
56429;SDS011;42332;52.136;20.666;2022-12-07T00:59:05;12.23;;;5.43;;
56429;SDS011;42332;52.136;20.666;2022-12-07T01:01:32;15.57;;;7.18;;
56429;SDS011;42332;52.136;20.666;2022-12-07T01:03:59;18.70;;;7.60;;
56429;SDS011;42332;52.136;20.666;2022-12-07T01:06:27;8.32;;;3.97;;
56429;SDS011;42332;52.136;20.666;2022-12-07T01:08:53;9.27;;;4.35;;
56429;SDS011;42332;52.136;20.666;2022-12-07T01:11:20;16.85;;;7.57;;
56429;SDS011;42332;52.136;20.666;2022-12-07T01:13:49;10.48;;;5.28;;
56429;SDS011;42332;52.136;20.666;2022-12-07T01:16:15;24.92;;;8.68;;
56429;SDS011;42332;52.136;20.666;2022-12-07T01:18:41;15.43;;;6.93;;
56429;SDS011;42332;52.136;20.666;2022-12-07T01:21:11;14.88;;;5.03;;
56429;SDS011;42332;52.136;20.666;2022-12-07T01:23:38;13.93;;;5.97;;
56429;SDS011;42332;52.136;20.666;2022-12-07T01:26:05;17.05;;;7.95;;
56429;SDS011;42332;52.136;20.666;2022-12-07T01:28:32;12.73;;;4.47;;
56429;SDS011;42332;52.136;20.666;2022-12-07T01:30:58;23.80;;;7.45;;
56429;SDS011;42332;52.136;20.666;2022-12-07T01:33:29;16.83;;;6.65;;
56429;SDS011;42332;52.136;20.666;2022-12-07T01:36:05;17.85;;;7.07;;
56429;SDS011;42332;52.136;20.666;2022-12-07T01:38:34;26.88;;;8.23;;
56429;SDS011;42332;52.136;20.666;2022-12-07T01:41:00;14.18;;;4.90;;
56429;SDS011;42332;52.136;20.666;2022-12-07T01:43:27;17.52;;;6.63;;
56429;SDS011;42332;52.136;20.666;2022-12-07T01:45:53;16.27;;;6.85;;
56429;SDS011;42332;52.136;20.666;2022-12-07T01:48:26;20.33;;;7.85;;
56429;SDS011;42332;52.136;20.666;2022-12-07T01:50:54;22.75;;;8.70;;
56429;SDS011;42332;52.136;20.666;2022-12-07T01:53:21;20.13;;;6.22;;
56429;SDS011;42332;52.136;20.666;2022-12-07T01:55:47;16.73;;;7.05;;
56429;SDS011;42332;52.136;20.666;2022-12-07T01:58:15;19.77;;;7.95;;
56429;SDS011;42332;52.136;20.666;2022-12-07T02:00:41;16.67;;;7.72;;
56429;SDS011;42332;52.136;20.666;2022-12-07T02:03:11;24.60;;;9.18;;
56429;SDS011;42332;52.136;20.666;2022-12-07T02:05:40;18.77;;;6.72;;
56429;SDS011;42332;52.136;20.666;2022-12-07T02:08:06;22.00;;;7.90;;
56429;SDS011;42332;52.136;20.666;2022-12-07T02:10:32;4.80;;;3.03;;
56429;SDS011;42332;52.136;20.666;2022-12-07T02:13:00;17.42;;;5.95;;
56429;SDS011;42332;52.136;20.666;2022-12-07T02:18:42;6.43;;;2.90;;
56429;SDS011;42332;52.136;20.666;2022-12-07T02:30:00;7.03;;;3.78;;
56429;SDS011;42332;52.136;20.666;2022-12-07T02:32:32;9.82;;;5.25;;
56429;SDS011;42332;52.136;20.666;2022-12-07T02:35:12;8.30;;;3.92;;
56429;SDS011;42332;52.136;20.666;2022-12-07T02:40:29;8.90;;;3.90;;
56429;SDS011;42332;52.136;20.666;2022-12-07T02:43:07;13.63;;;5.50;;
56429;SDS011;42332;52.136;20.666;2022-12-07T02:45:35;6.95;;;3.72;;
56429;SDS011;42332;52.136;20.666;2022-12-07T02:48:02;15.65;;;4.93;;
56429;SDS011;42332;52.136;20.666;2022-12-07T02:50:27;11.45;;;5.35;;
56429;SDS011;42332;52.136;20.666;2022-12-07T02:52:53;15.10;;;4.85;;
56429;SDS011;42332;52.136;20.666;2022-12-07T02:55:19;15.60;;;5.70;;
56429;SDS011;42332;52.136;20.666;2022-12-07T02:57:54;13.38;;;5.20;;
56429;SDS011;42332;52.136;20.666;2022-12-07T03:00:23;12.18;;;4.13;;
56429;SDS011;42332;52.136;20.666;2022-12-07T03:05:52;10.07;;;5.68;;
56429;SDS011;42332;52.136;20.666;2022-12-07T03:13:31;9.98;;;3.92;;
56429;SDS011;42332;52.136;20.666;2022-12-07T03:21:41;9.63;;;5.10;;
56429;SDS011;42332;52.136;20.666;2022-12-07T03:24:12;10.85;;;4.80;;
56429;SDS011;42332;52.136;20.666;2022-12-07T03:26:43;7.47;;;3.13;;
56429;SDS011;42332;52.136;20.666;2022-12-07T03:29:12;18.20;;;5.43;;
56429;SDS011;42332;52.136;20.666;2022-12-07T03:31:44;9.80;;;4.45;;
56429;SDS011;42332;52.136;20.666;2022-12-07T03:34:14;10.73;;;5.03;;
56429;SDS011;42332;52.136;20.666;2022-12-07T03:42:10;11.10;;;5.30;;
56429;SDS011;42332;52.136;20.666;2022-12-07T03:44:36;14.32;;;5.90;;
56429;SDS011;42332;52.136;20.666;2022-12-07T03:47:22;8.88;;;4.88;;
56429;SDS011;42332;52.136;20.666;2022-12-07T03:50:19;14.10;;;5.95;;
56429;SDS011;42332;52.136;20.666;2022-12-07T03:52:58;12.60;;;5.63;;
56429;SDS011;42332;52.136;20.666;2022-12-07T03:55:32;12.63;;;5.97;;
56429;SDS011;42332;52.136;20.666;2022-12-07T03:58:10;10.15;;;5.28;;
56429;SDS011;42332;52.136;20.666;2022-12-07T04:00:40;7.80;;;3.83;;
56429;SDS011;42332;52.136;20.666;2022-12-07T04:03:06;14.07;;;5.05;;
56429;SDS011;42332;52.136;20.666;2022-12-07T04:05:31;10.45;;;4.93;;
56429;SDS011;42332;52.136;20.666;2022-12-07T04:07:56;12.13;;;6.50;;
56429;SDS011;42332;52.136;20.666;2022-12-07T04:10:22;10.77;;;4.65;;
56429;SDS011;42332;52.136;20.666;2022-12-07T04:12:47;15.38;;;6.03;;
56429;SDS011;42332;52.136;20.666;2022-12-07T04:15:12;16.30;;;8.05;;
56429;SDS011;42332;52.136;20.666;2022-12-07T04:17:38;12.38;;;5.07;;
56429;SDS011;42332;52.136;20.666;2022-12-07T04:20:04;10.80;;;6.22;;
56429;SDS011;42332;52.136;20.666;2022-12-07T04:22:30;13.35;;;5.65;;
56429;SDS011;42332;52.136;20.666;2022-12-07T04:24:56;13.77;;;5.43;;
56429;SDS011;42332;52.136;20.666;2022-12-07T04:27:21;12.32;;;5.28;;
56429;SDS011;42332;52.136;20.666;2022-12-07T04:29:47;7.22;;;3.95;;
56429;SDS011;42332;52.136;20.666;2022-12-07T04:32:12;11.95;;;5.95;;
56429;SDS011;42332;52.136;20.666;2022-12-07T04:34:37;14.60;;;7.35;;
56429;SDS011;42332;52.136;20.666;2022-12-07T04:37:03;13.55;;;5.88;;
56429;SDS011;42332;52.136;20.666;2022-12-07T04:39:29;13.88;;;7.20;;
56429;SDS011;42332;52.136;20.666;2022-12-07T04:41:56;15.35;;;7.20;;
56429;SDS011;42332;52.136;20.666;2022-12-07T04:44:22;9.85;;;5.22;;
56429;SDS011;42332;52.136;20.666;2022-12-07T04:46:49;9.52;;;4.50;;
56429;SDS011;42332;52.136;20.666;2022-12-07T04:49:15;11.25;;;5.53;;
56429;SDS011;42332;52.136;20.666;2022-12-07T04:51:40;9.95;;;5.30;;
56429;SDS011;42332;52.136;20.666;2022-12-07T04:54:06;14.15;;;5.65;;
56429;SDS011;42332;52.136;20.666;2022-12-07T04:56:32;15.73;;;5.68;;
56429;SDS011;42332;52.136;20.666;2022-12-07T04:58:59;8.75;;;4.53;;
56429;SDS011;42332;52.136;20.666;2022-12-07T05:01:24;13.65;;;5.85;;
56429;SDS011;42332;52.136;20.666;2022-12-07T05:03:50;14.82;;;6.38;;
56429;SDS011;42332;52.136;20.666;2022-12-07T05:06:16;12.93;;;6.10;;
56429;SDS011;42332;52.136;20.666;2022-12-07T05:08:41;13.40;;;6.03;;
56429;SDS011;42332;52.136;20.666;2022-12-07T05:11:08;11.63;;;5.95;;
56429;SDS011;42332;52.136;20.666;2022-12-07T05:13:34;11.10;;;5.32;;
56429;SDS011;42332;52.136;20.666;2022-12-07T05:16:01;10.38;;;5.40;;
56429;SDS011;42332;52.136;20.666;2022-12-07T05:18:26;15.27;;;5.18;;
56429;SDS011;42332;52.136;20.666;2022-12-07T05:20:52;13.07;;;5.93;;
56429;SDS011;42332;52.136;20.666;2022-12-07T05:23:17;9.57;;;5.05;;
56429;SDS011;42332;52.136;20.666;2022-12-07T05:25:43;17.10;;;6.90;;
56429;SDS011;42332;52.136;20.666;2022-12-07T05:28:09;12.02;;;5.28;;
56429;SDS011;42332;52.136;20.666;2022-12-07T05:30:34;12.55;;;4.20;;
56429;SDS011;42332;52.136;20.666;2022-12-07T05:32:59;16.45;;;6.60;;
56429;SDS011;42332;52.136;20.666;2022-12-07T05:35:25;16.45;;;7.20;;
56429;SDS011;42332;52.136;20.666;2022-12-07T05:37:50;11.13;;;5.13;;
56429;SDS011;42332;52.136;20.666;2022-12-07T05:40:16;13.38;;;5.68;;
56429;SDS011;42332;52.136;20.666;2022-12-07T05:42:42;13.40;;;5.25;;
56429;SDS011;42332;52.136;20.666;2022-12-07T05:45:08;12.98;;;6.40;;
56429;SDS011;42332;52.136;20.666;2022-12-07T05:47:34;16.35;;;6.60;;
56429;SDS011;42332;52.136;20.666;2022-12-07T05:49:59;17.92;;;6.18;;
56429;SDS011;42332;52.136;20.666;2022-12-07T05:52:24;11.70;;;6.28;;
56429;SDS011;42332;52.136;20.666;2022-12-07T05:54:50;9.73;;;4.50;;
56429;SDS011;42332;52.136;20.666;2022-12-07T05:57:16;16.17;;;5.15;;
56429;SDS011;42332;52.136;20.666;2022-12-07T05:59:41;13.32;;;6.22;;
56429;SDS011;42332;52.136;20.666;2022-12-07T06:02:08;16.83;;;6.70;;
56429;SDS011;42332;52.136;20.666;2022-12-07T06:04:36;13.23;;;5.43;;
56429;SDS011;42332;52.136;20.666;2022-12-07T06:07:03;15.00;;;6.10;;
56429;SDS011;42332;52.136;20.666;2022-12-07T06:09:29;14.43;;;6.32;;
56429;SDS011;42332;52.136;20.666;2022-12-07T06:11:55;19.05;;;6.97;;
56429;SDS011;42332;52.136;20.666;2022-12-07T06:14:39;14.82;;;6.40;;
56429;SDS011;42332;52.136;20.666;2022-12-07T06:17:05;15.38;;;7.68;;
56429;SDS011;42332;52.136;20.666;2022-12-07T06:19:31;11.80;;;6.45;;
56429;SDS011;42332;52.136;20.666;2022-12-07T06:21:56;12.63;;;5.88;;
56429;SDS011;42332;52.136;20.666;2022-12-07T06:24:22;12.80;;;5.63;;
56429;SDS011;42332;52.136;20.666;2022-12-07T06:26:47;19.17;;;7.20;;
56429;SDS011;42332;52.136;20.666;2022-12-07T06:29:13;15.07;;;5.97;;
56429;SDS011;42332;52.136;20.666;2022-12-07T06:31:39;13.07;;;5.85;;
56429;SDS011;42332;52.136;20.666;2022-12-07T06:34:06;22.58;;;8.95;;
56429;SDS011;42332;52.136;20.666;2022-12-07T06:36:34;19.88;;;6.55;;
56429;SDS011;42332;52.136;20.666;2022-12-07T06:38:59;15.40;;;7.40;;
56429;SDS011;42332;52.136;20.666;2022-12-07T06:41:24;17.25;;;7.75;;
56429;SDS011;42332;52.136;20.666;2022-12-07T06:43:50;21.52;;;7.85;;
56429;SDS011;42332;52.136;20.666;2022-12-07T06:46:16;17.85;;;8.57;;
56429;SDS011;42332;52.136;20.666;2022-12-07T06:48:41;23.52;;;7.88;;
56429;SDS011;42332;52.136;20.666;2022-12-07T06:51:07;18.48;;;7.85;;
56429;SDS011;42332;52.136;20.666;2022-12-07T06:53:33;23.50;;;8.27;;
56429;SDS011;42332;52.136;20.666;2022-12-07T06:55:58;12.02;;;6.22;;
56429;SDS011;42332;52.136;20.666;2022-12-07T06:58:24;15.80;;;5.28;;
56429;SDS011;42332;52.136;20.666;2022-12-07T07:00:49;12.10;;;5.78;;
56429;SDS011;42332;52.136;20.666;2022-12-07T07:03:15;17.13;;;7.63;;
56429;SDS011;42332;52.136;20.666;2022-12-07T07:05:41;16.23;;;7.05;;
56429;SDS011;42332;52.136;20.666;2022-12-07T07:08:07;15.15;;;5.80;;
56429;SDS011;42332;52.136;20.666;2022-12-07T07:10:32;23.90;;;7.95;;
56429;SDS011;42332;52.136;20.666;2022-12-07T07:12:57;10.85;;;4.82;;
56429;SDS011;42332;52.136;20.666;2022-12-07T07:15:23;13.70;;;5.68;;
56429;SDS011;42332;52.136;20.666;2022-12-07T07:17:48;13.95;;;6.95;;
56429;SDS011;42332;52.136;20.666;2022-12-07T07:20:14;13.35;;;7.35;;
56429;SDS011;42332;52.136;20.666;2022-12-07T07:22:39;9.82;;;5.60;;
56429;SDS011;42332;52.136;20.666;2022-12-07T07:25:05;16.42;;;5.47;;
56429;SDS011;42332;52.136;20.666;2022-12-07T07:27:30;8.00;;;3.83;;
56429;SDS011;42332;52.136;20.666;2022-12-07T07:29:56;10.45;;;5.22;;
56429;SDS011;42332;52.136;20.666;2022-12-07T07:32:21;14.07;;;6.13;;
56429;SDS011;42332;52.136;20.666;2022-12-07T07:34:47;10.82;;;5.38;;
56429;SDS011;42332;52.136;20.666;2022-12-07T07:37:12;9.20;;;4.88;;
56429;SDS011;42332;52.136;20.666;2022-12-07T07:39:38;12.50;;;6.13;;
56429;SDS011;42332;52.136;20.666;2022-12-07T07:42:04;16.65;;;5.55;;
56429;SDS011;42332;52.136;20.666;2022-12-07T07:44:29;6.80;;;2.85;;
56429;SDS011;42332;52.136;20.666;2022-12-07T07:46:54;10.90;;;5.32;;
56429;SDS011;42332;52.136;20.666;2022-12-07T07:49:20;11.32;;;4.45;;
56429;SDS011;42332;52.136;20.666;2022-12-07T07:51:45;12.55;;;5.53;;
56429;SDS011;42332;52.136;20.666;2022-12-07T07:54:10;14.13;;;4.95;;
56429;SDS011;42332;52.136;20.666;2022-12-07T07:56:36;11.40;;;3.85;;
56429;SDS011;42332;52.136;20.666;2022-12-07T07:59:01;10.23;;;4.50;;
56429;SDS011;42332;52.136;20.666;2022-12-07T08:01:26;10.05;;;5.05;;
56429;SDS011;42332;52.136;20.666;2022-12-07T08:03:52;16.38;;;5.88;;
56429;SDS011;42332;52.136;20.666;2022-12-07T08:06:17;16.70;;;5.60;;
56429;SDS011;42332;52.136;20.666;2022-12-07T08:08:43;14.02;;;5.53;;
56429;SDS011;42332;52.136;20.666;2022-12-07T08:11:08;14.85;;;5.78;;
56429;SDS011;42332;52.136;20.666;2022-12-07T08:13:34;13.65;;;6.28;;
56429;SDS011;42332;52.136;20.666;2022-12-07T08:16:04;6.85;;;3.38;;
56429;SDS011;42332;52.136;20.666;2022-12-07T08:18:36;16.73;;;6.53;;
56429;SDS011;42332;52.136;20.666;2022-12-07T08:21:05;20.40;;;6.88;;
56429;SDS011;42332;52.136;20.666;2022-12-07T08:23:32;20.35;;;6.85;;
56429;SDS011;42332;52.136;20.666;2022-12-07T08:26:04;11.90;;;5.97;;
56429;SDS011;42332;52.136;20.666;2022-12-07T08:28:30;12.25;;;5.50;;
56429;SDS011;42332;52.136;20.666;2022-12-07T08:30:59;24.00;;;6.53;;
56429;SDS011;42332;52.136;20.666;2022-12-07T08:33:26;17.65;;;8.73;;
56429;SDS011;42332;52.136;20.666;2022-12-07T08:35:51;17.45;;;8.18;;
56429;SDS011;42332;52.136;20.666;2022-12-07T08:38:17;18.05;;;8.35;;
56429;SDS011;42332;52.136;20.666;2022-12-07T08:40:42;15.38;;;7.43;;
56429;SDS011;42332;52.136;20.666;2022-12-07T08:43:07;21.50;;;7.82;;
56429;SDS011;42332;52.136;20.666;2022-12-07T08:45:33;15.65;;;7.80;;
56429;SDS011;42332;52.136;20.666;2022-12-07T08:48:04;17.80;;;8.05;;
56429;SDS011;42332;52.136;20.666;2022-12-07T08:50:31;15.45;;;8.52;;
56429;SDS011;42332;52.136;20.666;2022-12-07T08:52:58;23.20;;;7.90;;
56429;SDS011;42332;52.136;20.666;2022-12-07T08:55:25;21.20;;;6.80;;
56429;SDS011;42332;52.136;20.666;2022-12-07T08:57:50;20.27;;;8.25;;
56429;SDS011;42332;52.136;20.666;2022-12-07T09:00:16;27.45;;;9.57;;
56429;SDS011;42332;52.136;20.666;2022-12-07T09:02:43;19.40;;;8.38;;
56429;SDS011;42332;52.136;20.666;2022-12-07T09:05:08;22.25;;;8.60;;
56429;SDS011;42332;52.136;20.666;2022-12-07T09:07:34;7.00;;;2.60;;
56429;SDS011;42332;52.136;20.666;2022-12-07T09:10:00;26.88;;;7.65;;
56429;SDS011;42332;52.136;20.666;2022-12-07T09:12:25;14.52;;;6.95;;
56429;SDS011;42332;52.136;20.666;2022-12-07T09:14:51;22.20;;;7.72;;
56429;SDS011;42332;52.136;20.666;2022-12-07T09:17:16;12.32;;;5.30;;
56429;SDS011;42332;52.136;20.666;2022-12-07T09:19:41;26.73;;;8.60;;
56429;SDS011;42332;52.136;20.666;2022-12-07T09:22:07;23.27;;;8.35;;
56429;SDS011;42332;52.136;20.666;2022-12-07T09:24:33;16.50;;;7.00;;
56429;SDS011;42332;52.136;20.666;2022-12-07T09:26:58;20.92;;;7.15;;
56429;SDS011;42332;52.136;20.666;2022-12-07T09:29:24;21.48;;;7.70;;
56429;SDS011;42332;52.136;20.666;2022-12-07T09:31:49;17.30;;;5.18;;
56429;SDS011;42332;52.136;20.666;2022-12-07T09:34:15;15.35;;;6.97;;
56429;SDS011;42332;52.136;20.666;2022-12-07T09:36:41;16.10;;;7.05;;
56429;SDS011;42332;52.136;20.666;2022-12-07T09:39:07;17.30;;;7.45;;
56429;SDS011;42332;52.136;20.666;2022-12-07T09:41:33;17.67;;;8.27;;
56429;SDS011;42332;52.136;20.666;2022-12-07T09:44:02;22.35;;;8.00;;
56429;SDS011;42332;52.136;20.666;2022-12-07T09:46:29;14.13;;;5.55;;
56429;SDS011;42332;52.136;20.666;2022-12-07T09:49:00;22.02;;;8.20;;
56429;SDS011;42332;52.136;20.666;2022-12-07T09:51:25;17.38;;;8.02;;
56429;SDS011;42332;52.136;20.666;2022-12-07T09:53:51;20.10;;;7.47;;
56429;SDS011;42332;52.136;20.666;2022-12-07T09:56:18;26.00;;;8.43;;
56429;SDS011;42332;52.136;20.666;2022-12-07T09:58:44;22.05;;;6.20;;
56429;SDS011;42332;52.136;20.666;2022-12-07T10:03:40;22.35;;;7.25;;
56429;SDS011;42332;52.136;20.666;2022-12-07T10:06:10;14.57;;;7.22;;
56429;SDS011;42332;52.136;20.666;2022-12-07T10:08:37;23.10;;;8.50;;
56429;SDS011;42332;52.136;20.666;2022-12-07T10:11:03;20.35;;;7.43;;
56429;SDS011;42332;52.136;20.666;2022-12-07T10:16:41;19.27;;;7.75;;
56429;SDS011;42332;52.136;20.666;2022-12-07T10:24:47;6.90;;;3.13;;
56429;SDS011;42332;52.136;20.666;2022-12-07T10:27:25;13.07;;;5.95;;
56429;SDS011;42332;52.136;20.666;2022-12-07T10:29:55;15.27;;;5.80;;
56429;SDS011;42332;52.136;20.666;2022-12-07T10:37:52;27.55;;;9.23;;
56429;SDS011;42332;52.136;20.666;2022-12-07T10:40:32;9.20;;;4.60;;
56429;SDS011;42332;52.136;20.666;2022-12-07T10:43:20;17.48;;;7.28;;
56429;SDS011;42332;52.136;20.666;2022-12-07T10:48:24;22.95;;;9.73;;
56429;SDS011;42332;52.136;20.666;2022-12-07T10:54:07;15.98;;;6.30;;
56429;SDS011;42332;52.136;20.666;2022-12-07T11:04:52;21.05;;;8.95;;
56429;SDS011;42332;52.136;20.666;2022-12-07T11:10:11;17.00;;;7.47;;
56429;SDS011;42332;52.136;20.666;2022-12-07T11:15:38;16.90;;;6.80;;
56429;SDS011;42332;52.136;20.666;2022-12-07T11:18:14;17.52;;;9.43;;
56429;SDS011;42332;52.136;20.666;2022-12-07T11:21:12;15.07;;;7.40;;
56429;SDS011;42332;52.136;20.666;2022-12-07T11:26:40;20.30;;;8.70;;
56429;SDS011;42332;52.136;20.666;2022-12-07T11:36:45;12.50;;;5.97;;
56429;SDS011;42332;52.136;20.666;2022-12-07T11:41:52;16.27;;;6.70;;
56429;SDS011;42332;52.136;20.666;2022-12-07T11:44:37;24.52;;;7.97;;
56429;SDS011;42332;52.136;20.666;2022-12-07T11:47:16;21.98;;;9.27;;
56429;SDS011;42332;52.136;20.666;2022-12-07T11:52:27;18.35;;;8.10;;
56429;SDS011;42332;52.136;20.666;2022-12-07T11:54:58;11.43;;;4.63;;
56429;SDS011;42332;52.136;20.666;2022-12-07T11:57:32;27.45;;;11.40;;
56429;SDS011;42332;52.136;20.666;2022-12-07T12:00:04;24.45;;;10.52;;
56429;SDS011;42332;52.136;20.666;2022-12-07T12:02:34;22.23;;;8.00;;
56429;SDS011;42332;52.136;20.666;2022-12-07T12:07:37;17.75;;;6.28;;
56429;SDS011;42332;52.136;20.666;2022-12-07T12:10:05;19.80;;;9.35;;
56429;SDS011;42332;52.136;20.666;2022-12-07T12:12:43;20.23;;;10.20;;
56429;SDS011;42332;52.136;20.666;2022-12-07T12:15:34;26.15;;;6.63;;
56429;SDS011;42332;52.136;20.666;2022-12-07T12:20:56;8.10;;;4.55;;
56429;SDS011;42332;52.136;20.666;2022-12-07T12:25:58;9.93;;;4.85;;
56429;SDS011;42332;52.136;20.666;2022-12-07T12:31:10;19.23;;;6.32;;
56429;SDS011;42332;52.136;20.666;2022-12-07T12:33:37;17.90;;;7.93;;
56429;SDS011;42332;52.136;20.666;2022-12-07T12:54:18;13.73;;;5.88;;
56429;SDS011;42332;52.136;20.666;2022-12-07T13:05:00;15.40;;;6.95;;
56429;SDS011;42332;52.136;20.666;2022-12-07T13:15:39;13.40;;;7.22;;
56429;SDS011;42332;52.136;20.666;2022-12-07T13:18:24;17.15;;;7.93;;
56429;SDS011;42332;52.136;20.666;2022-12-07T13:20:56;18.83;;;8.10;;
56429;SDS011;42332;52.136;20.666;2022-12-07T13:24:07;17.45;;;7.88;;
56429;SDS011;42332;52.136;20.666;2022-12-07T13:29:04;25.60;;;9.77;;
56429;SDS011;42332;52.136;20.666;2022-12-07T13:34:51;16.45;;;8.27;;
56429;SDS011;42332;52.136;20.666;2022-12-07T13:36:58;12.95;;;6.95;;
56429;SDS011;42332;52.136;20.666;2022-12-07T13:39:25;17.17;;;8.27;;
56429;SDS011;42332;52.136;20.666;2022-12-07T13:41:52;10.02;;;5.38;;
56429;SDS011;42332;52.136;20.666;2022-12-07T13:44:22;13.25;;;5.80;;
56429;SDS011;42332;52.136;20.666;2022-12-07T13:49:30;19.98;;;8.77;;
56429;SDS011;42332;52.136;20.666;2022-12-07T13:55:16;20.23;;;7.38;;
56429;SDS011;42332;52.136;20.666;2022-12-07T13:57:39;20.10;;;9.20;;
56429;SDS011;42332;52.136;20.666;2022-12-07T14:00:06;16.10;;;8.10;;
56429;SDS011;42332;52.136;20.666;2022-12-07T14:12:52;27.40;;;12.85;;
56429;SDS011;42332;52.136;20.666;2022-12-07T14:15:25;22.05;;;10.27;;
56429;SDS011;42332;52.136;20.666;2022-12-07T14:17:54;24.23;;;12.55;;
56429;SDS011;42332;52.136;20.666;2022-12-07T14:22:58;25.85;;;9.70;;
56429;SDS011;42332;52.136;20.666;2022-12-07T14:25:24;22.42;;;10.27;;
56429;SDS011;42332;52.136;20.666;2022-12-07T14:27:52;36.25;;;12.07;;
56429;SDS011;42332;52.136;20.666;2022-12-07T14:30:24;21.70;;;9.57;;
56429;SDS011;42332;52.136;20.666;2022-12-07T14:33:03;22.15;;;8.88;;
56429;SDS011;42332;52.136;20.666;2022-12-07T14:35:30;19.25;;;7.25;;
56429;SDS011;42332;52.136;20.666;2022-12-07T14:37:56;16.83;;;7.28;;
56429;SDS011;42332;52.136;20.666;2022-12-07T14:40:25;24.33;;;9.05;;
56429;SDS011;42332;52.136;20.666;2022-12-07T14:45:50;36.97;;;11.43;;
56429;SDS011;42332;52.136;20.666;2022-12-07T14:48:15;23.70;;;11.23;;
56429;SDS011;42332;52.136;20.666;2022-12-07T14:50:42;17.42;;;9.10;;
56429;SDS011;42332;52.136;20.666;2022-12-07T14:53:13;24.70;;;10.30;;
56429;SDS011;42332;52.136;20.666;2022-12-07T14:55:40;23.42;;;9.23;;
56429;SDS011;42332;52.136;20.666;2022-12-07T14:58:06;20.63;;;10.23;;
56429;SDS011;42332;52.136;20.666;2022-12-07T15:00:31;16.55;;;7.15;;
56429;SDS011;42332;52.136;20.666;2022-12-07T15:02:58;19.15;;;9.43;;
56429;SDS011;42332;52.136;20.666;2022-12-07T15:05:23;17.77;;;8.05;;
56429;SDS011;42332;52.136;20.666;2022-12-07T15:07:49;16.20;;;5.85;;
56429;SDS011;42332;52.136;20.666;2022-12-07T15:10:24;17.70;;;7.35;;
56429;SDS011;42332;52.136;20.666;2022-12-07T15:12:56;14.90;;;6.35;;
56429;SDS011;42332;52.136;20.666;2022-12-07T15:15:46;12.98;;;6.90;;
56429;SDS011;42332;52.136;20.666;2022-12-07T15:18:11;12.30;;;5.35;;
56429;SDS011;42332;52.136;20.666;2022-12-07T15:20:37;14.77;;;7.35;;
56429;SDS011;42332;52.136;20.666;2022-12-07T15:23:02;16.33;;;6.30;;
56429;SDS011;42332;52.136;20.666;2022-12-07T15:25:28;17.20;;;7.93;;
56429;SDS011;42332;52.136;20.666;2022-12-07T15:27:53;15.18;;;7.18;;
56429;SDS011;42332;52.136;20.666;2022-12-07T15:30:18;15.02;;;7.70;;
56429;SDS011;42332;52.136;20.666;2022-12-07T15:32:44;20.75;;;8.70;;
56429;SDS011;42332;52.136;20.666;2022-12-07T15:35:09;16.05;;;7.35;;
56429;SDS011;42332;52.136;20.666;2022-12-07T15:37:34;22.60;;;8.45;;
56429;SDS011;42332;52.136;20.666;2022-12-07T15:40:00;15.50;;;6.88;;
56429;SDS011;42332;52.136;20.666;2022-12-07T15:42:25;16.50;;;8.70;;
56429;SDS011;42332;52.136;20.666;2022-12-07T15:44:51;16.02;;;8.07;;
56429;SDS011;42332;52.136;20.666;2022-12-07T15:47:28;21.27;;;8.77;;
56429;SDS011;42332;52.136;20.666;2022-12-07T15:49:55;16.98;;;8.55;;
56429;SDS011;42332;52.136;20.666;2022-12-07T15:52:20;15.82;;;8.15;;
56429;SDS011;42332;52.136;20.666;2022-12-07T15:54:46;19.67;;;8.27;;
56429;SDS011;42332;52.136;20.666;2022-12-07T15:57:12;15.60;;;8.02;;
56429;SDS011;42332;52.136;20.666;2022-12-07T15:59:38;15.48;;;7.85;;
56429;SDS011;42332;52.136;20.666;2022-12-07T16:02:03;16.20;;;8.07;;
56429;SDS011;42332;52.136;20.666;2022-12-07T16:04:28;19.73;;;8.52;;
56429;SDS011;42332;52.136;20.666;2022-12-07T16:06:54;23.25;;;10.18;;
56429;SDS011;42332;52.136;20.666;2022-12-07T16:09:19;25.27;;;8.48;;
56429;SDS011;42332;52.136;20.666;2022-12-07T16:11:45;25.92;;;10.63;;
56429;SDS011;42332;52.136;20.666;2022-12-07T16:14:11;18.88;;;8.38;;
56429;SDS011;42332;52.136;20.666;2022-12-07T16:16:36;22.15;;;9.77;;
56429;SDS011;42332;52.136;20.666;2022-12-07T16:19:01;21.67;;;8.55;;
56429;SDS011;42332;52.136;20.666;2022-12-07T16:21:27;18.63;;;9.73;;
56429;SDS011;42332;52.136;20.666;2022-12-07T16:23:53;35.60;;;11.25;;
56429;SDS011;42332;52.136;20.666;2022-12-07T16:26:19;23.48;;;10.88;;
56429;SDS011;42332;52.136;20.666;2022-12-07T16:28:48;22.70;;;7.85;;
56429;SDS011;42332;52.136;20.666;2022-12-07T16:31:15;19.95;;;8.60;;
56429;SDS011;42332;52.136;20.666;2022-12-07T16:33:42;20.52;;;10.00;;
56429;SDS011;42332;52.136;20.666;2022-12-07T16:36:08;22.95;;;10.27;;
56429;SDS011;42332;52.136;20.666;2022-12-07T16:38:35;27.60;;;10.75;;
56429;SDS011;42332;52.136;20.666;2022-12-07T16:41:01;16.75;;;8.23;;
56429;SDS011;42332;52.136;20.666;2022-12-07T16:43:27;20.85;;;9.10;;
56429;SDS011;42332;52.136;20.666;2022-12-07T16:45:52;17.58;;;8.55;;
56429;SDS011;42332;52.136;20.666;2022-12-07T16:48:18;22.45;;;9.77;;
56429;SDS011;42332;52.136;20.666;2022-12-07T16:50:43;19.05;;;8.45;;
56429;SDS011;42332;52.136;20.666;2022-12-07T16:53:09;12.65;;;6.75;;
56429;SDS011;42332;52.136;20.666;2022-12-07T16:55:38;16.90;;;8.45;;
56429;SDS011;42332;52.136;20.666;2022-12-07T16:58:08;22.67;;;10.05;;
56429;SDS011;42332;52.136;20.666;2022-12-07T17:00:34;27.75;;;10.45;;
56429;SDS011;42332;52.136;20.666;2022-12-07T17:03:01;27.35;;;11.13;;